Monday, December 18, 2017, 3:35 PM EST
Back to Local

KBDR, Sikorsky Memorial Airport

Location: Stratford, CT, United States Lat: 41.167
Local Time: 3:35 PM EST (20:35 GMT) Lon: -73.133
Time Zone: US/Eastern Elev: 9 ft

Show me the last for .
Show Decoded

2017-12-18 14:52 METAR KBDR 181952Z 08004KT 10SM OVC011 05/M01 A2998 RMK AO2 SLP150 T00501011 =
2017-12-18 14:10 METAR KBDR 181910Z 04004KT 10SM OVC011 05/M01 A2997 RMK AO2 T00501011 =
2017-12-18 13:52 METAR KBDR 181852Z 04005KT 10SM OVC009 05/M01 A2998 RMK AO2 SLP151 T00501011 =
2017-12-18 12:52 METAR KBDR 181752Z 36006KT 10SM OVC009 04/M02 A3002 RMK AO2 SLP166 T00441022
                 10044 21006 58030 =
2017-12-18 12:20 METAR KBDR 181720Z 01007KT 10SM OVC009 03/M03 A3004 RMK AO2 T00331028 =
2017-12-18 11:16 METAR KBDR 181616Z 05003KT 10SM BKN013 OVC038 02/M04 A3007 RMK AO2 T00221044 =
2017-12-18 10:52 METAR KBDR 181552Z 04004KT 10SM OVC036 02/M05 A3008 RMK AO2 SLP187 T00171050 =
2017-12-18 09:52 METAR KBDR 181452Z 02007KT 10SM OVC043 01/M06 A3011 RMK AO2 SLP195 T00111056
                 56017 =
2017-12-18 09:27 METAR KBDR 181427Z 02007KT 10SM SCT019 OVC046 01/M06 A3012 RMK AO2 T00061056 =
2017-12-18 06:52 METAR KBDR 181152Z 03007KT 10SM FEW028 OVC039 00/M07 A3016 RMK AO2 SLP212 60000
                 T00001072 10000 21006 55006 =
2017-12-18 05:52 METAR KBDR 181052Z AUTO 04005KT 10SM FEW055 OVC090 M01/M06 A3016 RMK AO2 SNE34
                 SLP212 P0000 T10061061 =
2017-12-18 04:52 METAR KBDR 180952Z AUTO 03006KT 10SM -SN SCT024 SCT030 OVC041 M01/M08 A3017 RMK
                 AO2 SNE14B52 SLP216 P0000 T10061078 =
2017-12-18 04:44 METAR KBDR 180944Z AUTO 03006KT 10SM FEW024 SCT033 OVC048 00/M08 A3017 RMK AO2
                 SNE14 P0000 T00001078 =
2017-12-18 04:17 METAR KBDR 180917Z AUTO 03005KT 9SM BKN022 OVC049 00/M08 A3017 RMK AO2 SNE14
                 P0000 T00001078 =
2017-12-18 02:52 METAR KBDR 180752Z AUTO 03005KT 10SM OVC022 00/M10 A3020 RMK AO2 SLP227
                 T00001100 =
2017-12-18 02:13 METAR KBDR 180713Z AUTO 03006KT 10SM BKN024 BKN120 M01/M10 A3020 RMK AO2
                 T10061100 =
2017-12-18 01:52 METAR KBDR 180652Z AUTO 04005KT 10SM FEW060 BKN120 M01/M10 A3020 RMK AO2 SLP226
                 T10061100 =
2017-12-18 00:42 METAR KBDR 180542Z AUTO 04005KT 10SM BKN024 BKN120 00/M10 A3021 RMK AO2
                 T00001100 =
2017-12-18 00:32 METAR KBDR 180532Z AUTO 03005KT 10SM SCT022 BKN120 00/M10 A3021 RMK AO2
                 T00001100 =
2017-12-17 23:52 METAR KBDR 180452Z AUTO 02007KT 10SM OVC022 00/M10 A3023 RMK AO2 SLP235
                 T00001100 400061044 =
2017-12-17 22:52 METAR KBDR 180352Z AUTO 03004KT 10SM BKN025 00/M09 A3024 RMK AO2 SLP239
                 T00001094 =
2017-12-17 21:52 METAR KBDR 180252Z 05004KT 10SM SCT120 00/M09 A3025 RMK AO2 SLP243 T00001094
                 58008 =
2017-12-17 20:52 METAR KBDR 180152Z 03004KT 10SM SCT120 00/M10 A3027 RMK AO2 SLP251 T00001100 =
2017-12-17 19:52 METAR KBDR 180052Z AUTO 00000KT 10SM SCT055 00/M07 A3028 RMK AO2 SLP254
                 T00001067 =
2017-12-17 18:52 METAR KBDR 172352Z 00000KT 10SM SCT100 M01/M07 A3027 RMK AO2 SLP251 T10061067
                 10006 21006 51007 =
2017-12-17 17:52 METAR KBDR 172252Z 01003KT 10SM CLR 00/M08 A3026 RMK AO2 SLP248 T00001078 =
2017-12-17 16:52 METAR KBDR 172152Z 00000KT 10SM CLR 00/M08 A3026 RMK AO2 SLP248 T00001078 =
2017-12-17 15:52 METAR KBDR 172052Z 00000KT 10SM CLR 01/M08 A3025 RMK AO2 SLP244 T00061078 55006
                 =

Support USWX by starting your Amazon purchase here.